Time;durP1;ratioP1;P1;durP2;ratioP2;P2;SDS_P1;SDS_P2;PMS_P1;PMS_P2;Temp;Humidity;BMP_temperature;BMP_pressure;BME280_temperature;BME280_humidity;BME280_pressure;Samples;Min_cycle;Max_cycle;Signal;HPM_P1;HPM_P2
2023/09/07 00:06:11;;;;;;;22.60;17.13;;;14.30;99.90;;;;;;6108387;23;20217;-84
2023/09/07 00:10:30;;;;;;;25.17;17.80;;;14.30;99.90;;;;;;6015101;23;20259;-85
2023/09/07 00:31:27;;;;;;;22.60;15.97;;;14.00;99.90;;;;;;5814890;24;20188;-82
2023/09/07 01:41:50;;;;;;;21.77;16.17;;;13.50;99.90;;;;;;5728524;24;20436;-84
2023/09/07 02:07:38;;;;;;;19.67;16.63;;;13.30;99.90;;;;;;5797327;24;20351;-84
2023/09/07 02:33:13;;;;;;;20.03;15.97;;;13.30;99.90;;;;;;5848742;24;20332;-87
2023/09/07 03:08:46;;;;;;;19.30;15.13;;;13.10;99.90;;;;;;6075867;23;20707;-85
2023/09/07 03:13:15;;;;;;;17.97;15.47;;;13.10;99.90;;;;;;5935262;23;21133;-84
2023/09/07 03:34:03;;;;;;;20.60;16.27;;;12.90;99.90;;;;;;5761452;24;20186;-84
2023/09/07 03:54:26;;;;;;;21.93;15.97;;;13.10;99.90;;;;;;5674748;24;20167;-82
2023/09/07 03:58:47;;;;;;;22.77;17.17;;;13.10;99.90;;;;;;5615053;24;20403;-83
2023/09/07 04:24:48;;;;;;;30.13;19.53;;;12.90;99.90;;;;;;5860912;24;20173;-83
2023/09/07 04:55:13;;;;;;;24.43;18.77;;;13.40;99.90;;;;;;6015613;23;20622;-88
2023/09/07 05:20:13;;;;;;;26.30;21.27;;;14.00;99.90;;;;;;5838626;23;20405;-86
2023/09/07 05:40:37;;;;;;;26.77;18.07;;;15.20;99.90;;;;;;5654598;24;20258;-84
2023/09/07 06:16:16;;;;;;;29.10;25.37;;;16.50;99.90;;;;;;5737969;24;21481;-85
2023/09/07 06:57:01;;;;;;;26.37;23.10;;;18.70;99.90;;;;;;5789752;24;20663;-84
2023/09/07 07:26:45;;;;;;;20.13;18.02;;;20.40;99.90;;;;;;5801022;23;20379;-82
2023/09/07 07:47:44;;;;;;;18.80;16.80;;;21.90;92.50;;;;;;5673695;24;20242;-82
2023/09/07 08:08:02;;;;;;;17.38;15.25;;;22.20;90.10;;;;;;5851391;23;20246;-82
2023/09/07 09:03:53;;;;;;;19.38;11.88;;;22.40;91.60;;;;;;5862457;23;20719;-86
2023/09/07 09:34:05;;;;;;;14.55;9.45;;;23.30;88.20;;;;;;5715986;24;20180;-80
2023/09/07 09:59:30;;;;;;;11.00;7.60;;;23.60;86.20;;;;;;5692100;24;20165;-84
2023/09/07 10:44:40;;;;;;;5.57;4.90;;;24.90;76.30;;;;;;5886233;23;20690;-80
2023/09/07 11:05:40;;;;;;;5.78;5.18;;;25.50;72.90;;;;;;5719922;24;20457;-81
2023/09/07 11:40:58;;;;;;;4.72;4.32;;;25.10;69.80;;;;;;5428239;25;20845;-81
2023/09/07 12:06:23;;;;;;;4.55;4.15;;;25.40;65.20;;;;;;5696223;24;20229;-85
2023/09/07 14:43:43;;;;;;;2.85;2.60;;;30.20;56.00;;;;;;5780237;24;20656;-87
2023/09/07 15:24:19;;;;;;;4.18;3.40;;;25.80;58.40;;;;;;5975935;23;20215;-86
2023/09/07 15:44:36;;;;;;;7.57;3.60;;;25.10;60.00;;;;;;5914401;23;20757;-86
2023/09/07 16:55:41;;;;;;;5.18;4.32;;;22.60;91.80;;;;;;5811864;24;20293;-87
2023/09/07 17:26:07;;;;;;;7.63;5.50;;;20.90;99.90;;;;;;5961744;23;20300;-86
2023/09/07 18:11:46;;;;;;;5.85;5.30;;;21.40;90.80;;;;;;5784413;24;20189;-86
2023/09/07 18:32:00;;;;;;;9.13;6.50;;;20.70;95.00;;;;;;5844697;24;20232;-88
2023/09/07 18:57:01;;;;;;;6.57;5.57;;;20.40;98.00;;;;;;5840886;24;20599;-87
2023/09/07 19:17:16;;;;;;;8.27;6.50;;;20.00;99.90;;;;;;5793084;24;20346;-86
2023/09/07 19:43:05;;;;;;;9.10;7.20;;;18.90;99.90;;;;;;5915101;23;20368;-83
2023/09/07 19:47:25;;;;;;;9.20;6.63;;;18.70;99.90;;;;;;5779867;24;20414;-83
2023/09/07 20:33:38;;;;;;;8.63;7.70;;;17.70;99.90;;;;;;5785906;24;20287;-85
2023/09/07 21:04:02;;;;;;;9.33;8.37;;;16.70;99.90;;;;;;5843341;24;20236;-87
2023/09/07 21:34:32;;;;;;;11.17;9.93;;;16.40;99.90;;;;;;5877176;23;20258;-84
2023/09/07 22:10:05;;;;;;;11.87;10.70;;;15.80;99.90;;;;;;6005262;23;20157;-85
2023/09/07 22:45:16;;;;;;;14.07;11.30;;;15.50;99.90;;;;;;5864944;23;20369;-87
2023/09/07 23:10:52;;;;;;;12.97;11.57;;;15.20;99.90;;;;;;5835531;23;20187;-85
2023/09/07 23:41:26;;;;;;;12.33;11.10;;;14.90;99.90;;;;;;5996128;23;20466;-84
